createdAt,value
2018-06-22T00:01:56.647Z,1.47
2018-06-22T00:04:25.423Z,1.80
2018-06-22T00:06:54.231Z,1.73
2018-06-22T00:09:23.052Z,1.70
2018-06-22T00:11:51.888Z,1.27
2018-06-22T00:14:20.674Z,1.67
2018-06-22T00:16:49.504Z,1.50
2018-06-22T00:19:18.308Z,2.10
2018-06-22T00:21:47.184Z,2.33
2018-06-22T00:24:15.955Z,1.70
2018-06-22T00:26:44.759Z,2.53
2018-06-22T00:29:13.570Z,1.40
2018-06-22T00:31:43.363Z,1.47
2018-06-22T00:34:12.246Z,2.00
2018-06-22T00:36:41.325Z,1.10
2018-06-22T00:39:11.418Z,1.80
2018-06-22T00:41:40.576Z,1.53
2018-06-22T00:44:09.445Z,1.57
2018-06-22T00:46:38.456Z,1.77
2018-06-22T00:49:07.232Z,1.33
2018-06-22T00:51:36.008Z,1.53
2018-06-22T00:54:11.696Z,1.40
2018-06-22T00:56:40.519Z,1.90
2018-06-22T00:59:09.616Z,1.83
2018-06-22T01:01:40.208Z,1.87
2018-06-22T01:04:09.854Z,1.70
2018-06-22T01:06:38.643Z,2.17
2018-06-22T01:09:12.049Z,2.03
2018-06-22T01:11:40.822Z,2.30
2018-06-22T01:14:09.822Z,2.47
2018-06-22T01:16:38.719Z,1.63
2018-06-22T01:19:08.532Z,2.40
2018-06-22T01:21:37.416Z,1.50
2018-06-22T01:24:06.625Z,1.77
2018-06-22T01:26:35.397Z,1.93
2018-06-22T01:29:09.705Z,2.20
2018-06-22T01:31:38.513Z,2.00
2018-06-22T01:34:07.336Z,1.67
2018-06-22T01:36:36.120Z,2.10
2018-06-22T01:39:07.864Z,1.83
2018-06-22T01:41:36.648Z,2.23
2018-06-22T01:44:05.538Z,2.90
2018-06-22T01:46:34.974Z,2.07
2018-06-22T01:49:03.737Z,3.37
2018-06-22T01:51:32.662Z,2.27
2018-06-22T01:54:01.673Z,2.30
2018-06-22T01:56:30.895Z,1.97
2018-06-22T01:58:59.737Z,2.23
2018-06-22T02:01:28.534Z,2.53
2018-06-22T02:03:57.295Z,2.80
2018-06-22T02:06:26.092Z,2.63
2018-06-22T02:08:54.900Z,2.53
2018-06-22T02:11:23.727Z,2.20
2018-06-22T02:13:52.494Z,2.47
2018-06-22T02:16:21.280Z,2.60
2018-06-22T02:18:50.031Z,2.87
2018-06-22T02:21:18.887Z,3.10
2018-06-22T02:23:47.945Z,3.20
2018-06-22T02:26:17.076Z,3.40
2018-06-22T02:28:45.863Z,2.97
2018-06-22T02:31:14.672Z,3.30
2018-06-22T02:33:43.488Z,3.80
2018-06-22T02:36:12.143Z,3.30
2018-06-22T02:38:40.888Z,4.00
2018-06-22T02:41:09.704Z,2.87
2018-06-22T02:43:38.509Z,3.20
2018-06-22T02:46:07.389Z,2.70
2018-06-22T02:48:36.166Z,2.57
2018-06-22T02:51:05.313Z,3.23
2018-06-22T02:53:33.924Z,2.37
2018-06-22T02:56:02.708Z,2.37
2018-06-22T02:58:31.566Z,3.17
2018-06-22T03:01:00.309Z,2.43
2018-06-22T03:03:29.127Z,3.63
2018-06-22T03:05:58.243Z,3.63
2018-06-22T03:08:26.910Z,3.43
2018-06-22T03:10:55.753Z,2.77
2018-06-22T03:13:24.579Z,2.97
2018-06-22T03:15:53.375Z,2.73
2018-06-22T03:18:22.516Z,3.13
2018-06-22T03:20:51.133Z,2.10
2018-06-22T03:23:20.032Z,2.33
2018-06-22T03:25:48.821Z,2.10
2018-06-22T03:28:17.967Z,2.47
2018-06-22T03:30:46.749Z,3.17
2018-06-22T03:33:15.564Z,2.97
2018-06-22T03:35:44.436Z,2.50
2018-06-22T03:38:13.563Z,2.87
2018-06-22T03:40:42.343Z,3.07
2018-06-22T03:43:11.189Z,2.50
2018-06-22T03:45:45.843Z,2.87
2018-06-22T03:48:14.713Z,3.57
2018-06-22T03:50:43.473Z,3.20
2018-06-22T03:53:12.280Z,2.47
2018-06-22T03:55:41.104Z,3.03
2018-06-22T03:58:10.095Z,2.27
2018-06-22T04:00:38.970Z,3.57
2018-06-22T04:03:07.749Z,3.60
2018-06-22T04:05:36.584Z,3.17
2018-06-22T04:08:05.679Z,2.40
2018-06-22T04:10:34.500Z,2.23
2018-06-22T04:13:03.798Z,3.13
2018-06-22T04:15:32.621Z,2.53
2018-06-22T04:18:01.371Z,2.30
2018-06-22T04:20:30.228Z,2.10
2018-06-22T04:22:58.987Z,1.70
2018-06-22T04:25:27.671Z,1.27
2018-06-22T04:27:56.789Z,1.47
2018-06-22T04:30:25.609Z,1.33
2018-06-22T04:32:54.392Z,1.83
2018-06-22T04:35:23.050Z,1.63
2018-06-22T04:37:51.904Z,1.60
2018-06-22T04:40:20.733Z,1.47
2018-06-22T04:42:49.493Z,1.80
2018-06-22T04:45:25.552Z,1.43
2018-06-22T04:47:54.200Z,2.00
2018-06-22T04:50:22.838Z,1.53
2018-06-22T04:52:51.626Z,1.80
2018-06-22T04:55:20.403Z,1.60
2018-06-22T04:57:49.151Z,1.20
2018-06-22T05:00:18.052Z,1.00
2018-06-22T05:02:46.638Z,0.87
2018-06-22T05:05:15.283Z,1.10
2018-06-22T05:07:44.007Z,1.03
2018-06-22T05:10:12.975Z,1.10
2018-06-22T05:12:41.955Z,1.50
2018-06-22T05:15:10.711Z,1.30
2018-06-22T05:17:39.503Z,1.23
2018-06-22T05:20:08.264Z,0.77
2018-06-22T05:22:36.977Z,0.90
2018-06-22T05:25:05.962Z,1.07
2018-06-22T05:27:35.711Z,1.00
2018-06-22T05:30:04.571Z,1.30
2018-06-22T05:32:33.923Z,1.17
2018-06-22T05:35:02.673Z,1.47
2018-06-22T05:37:31.531Z,1.00
2018-06-22T05:40:00.117Z,1.13
2018-06-22T05:42:29.177Z,1.13
2018-06-22T05:44:57.991Z,1.17
2018-06-22T05:47:26.824Z,0.90
2018-06-22T05:49:55.640Z,0.80
2018-06-22T05:52:24.388Z,1.40
2018-06-22T05:54:53.199Z,1.30
2018-06-22T05:57:21.942Z,1.40
2018-06-22T05:59:51.108Z,1.07
2018-06-22T06:02:19.759Z,1.23
2018-06-22T06:04:49.163Z,1.20
2018-06-22T06:07:17.923Z,1.00
2018-06-22T06:09:46.748Z,1.10
2018-06-22T06:12:16.520Z,0.70
2018-06-22T06:14:45.388Z,0.77
2018-06-22T06:17:14.153Z,0.90
2018-06-22T06:19:42.955Z,1.03
2018-06-22T06:22:11.712Z,0.90
2018-06-22T06:24:40.954Z,1.10
2018-06-22T06:27:09.818Z,1.27
2018-06-22T06:29:38.649Z,0.80
2018-06-22T06:32:07.535Z,1.00
2018-06-22T06:34:36.325Z,1.00
2018-06-22T06:37:05.089Z,0.87
2018-06-22T06:39:33.983Z,1.20
2018-06-22T06:42:08.544Z,0.97
2018-06-22T06:44:37.482Z,1.50
2018-06-22T06:47:06.734Z,1.00
2018-06-22T06:49:35.648Z,1.03
2018-06-22T06:52:04.503Z,1.10
2018-06-22T06:54:33.254Z,1.13
2018-06-22T06:57:02.788Z,1.20
2018-06-22T06:59:31.815Z,1.93
2018-06-22T07:02:00.725Z,1.43
2018-06-22T07:04:29.322Z,1.37
2018-06-22T07:06:57.995Z,1.53
2018-06-22T07:09:26.844Z,0.87
2018-06-22T07:11:55.739Z,1.00
2018-06-22T07:14:24.715Z,1.53
2018-06-22T07:16:53.665Z,1.10
2018-06-22T07:19:22.411Z,1.17
2018-06-22T07:21:51.170Z,0.97
2018-06-22T07:24:20.315Z,1.00
2018-06-22T07:26:49.123Z,0.93
2018-06-22T07:29:17.878Z,1.47
2018-06-22T07:31:46.929Z,1.00
2018-06-22T07:34:15.686Z,1.27
2018-06-22T07:36:44.442Z,1.27
2018-06-22T07:39:13.459Z,0.77
2018-06-22T07:41:42.216Z,1.10
2018-06-22T07:44:11.273Z,1.00
2018-06-22T07:46:40.661Z,1.20
2018-06-22T07:49:09.417Z,1.00
2018-06-22T07:51:38.215Z,0.93
2018-06-22T07:54:07.306Z,1.60
2018-06-22T07:56:36.080Z,1.00
2018-06-22T07:59:04.867Z,1.10
2018-06-22T08:01:34.008Z,1.33
2018-06-22T08:04:02.922Z,1.73
2018-06-22T08:06:31.815Z,1.27
2018-06-22T08:09:00.769Z,1.57
2018-06-22T08:11:29.685Z,1.40
2018-06-22T08:13:58.450Z,1.37
2018-06-22T08:16:27.582Z,0.87
2018-06-22T08:18:56.340Z,1.53
2018-06-22T08:21:25.105Z,1.83
2018-06-22T08:23:54.241Z,1.80
2018-06-22T08:26:23.001Z,1.40
2018-06-22T08:28:51.808Z,1.57
2018-06-22T08:31:20.769Z,1.00
2018-06-22T08:33:49.549Z,1.60
2018-06-22T08:36:18.137Z,1.43
2018-06-22T08:38:47.378Z,1.50
2018-06-22T08:41:16.257Z,1.33
2018-06-22T08:43:45.032Z,1.30
2018-06-22T08:46:14.321Z,0.87
2018-06-22T08:48:43.084Z,1.53
2018-06-22T08:51:11.848Z,1.03
2018-06-22T08:53:41.146Z,1.20
2018-06-22T08:56:10.151Z,1.23
2018-06-22T08:58:38.936Z,1.30
2018-06-22T09:01:08.239Z,2.33
2018-06-22T09:03:37.012Z,1.13
2018-06-22T09:06:05.706Z,0.90
2018-06-22T09:08:34.718Z,1.40
2018-06-22T09:11:03.535Z,1.47
2018-06-22T09:13:32.138Z,1.70
2018-06-22T09:16:00.927Z,0.83
2018-06-22T09:18:29.731Z,1.63
2018-06-22T09:20:58.524Z,1.47
2018-06-22T09:23:27.275Z,2.00
2018-06-22T09:25:56.095Z,1.60
2018-06-22T09:28:24.835Z,3.17
2018-06-22T09:30:53.693Z,1.60
2018-06-22T09:33:22.447Z,1.83
2018-06-22T09:35:51.129Z,1.70
2018-06-22T09:38:19.716Z,1.73
2018-06-22T09:40:48.348Z,1.60
2018-06-22T09:43:17.199Z,2.00
2018-06-22T09:45:52.119Z,1.27
2018-06-22T09:48:20.757Z,1.33
2018-06-22T09:50:49.546Z,2.20
2018-06-22T09:53:18.178Z,1.03
2018-06-22T09:55:47.295Z,1.90
2018-06-22T09:58:15.873Z,0.83
2018-06-22T10:00:51.526Z,1.53
2018-06-22T10:03:22.264Z,1.50
2018-06-22T10:05:51.117Z,1.20
2018-06-22T10:08:19.893Z,1.47
2018-06-22T10:10:48.688Z,1.40
2018-06-22T10:13:17.436Z,2.07
2018-06-22T10:15:50.486Z,1.60
2018-06-22T10:18:19.235Z,1.80
2018-06-22T10:20:48.035Z,1.90
2018-06-22T10:23:16.780Z,2.60
2018-06-22T10:25:45.611Z,1.60
2018-06-22T10:28:14.266Z,1.47
2018-06-22T10:30:43.088Z,2.63
2018-06-22T10:33:11.976Z,1.37
2018-06-22T10:35:40.838Z,1.70
2018-06-22T10:38:09.637Z,2.27
2018-06-22T10:40:38.962Z,1.93
2018-06-22T10:43:08.128Z,1.97
2018-06-22T10:45:42.931Z,1.80
2018-06-22T10:48:11.802Z,1.67
2018-06-22T10:50:40.643Z,1.70
2018-06-22T10:53:09.488Z,1.97
2018-06-22T10:55:38.301Z,1.60
2018-06-22T10:58:07.231Z,1.00
2018-06-22T11:00:36.045Z,1.43
2018-06-22T11:03:05.158Z,1.73
2018-06-22T11:05:33.960Z,1.30
2018-06-22T11:08:02.816Z,1.20
2018-06-22T11:10:31.580Z,1.70
2018-06-22T11:13:00.392Z,1.73
2018-06-22T11:15:29.238Z,1.23
2018-06-22T11:17:58.047Z,1.60
2018-06-22T11:20:26.811Z,1.63
2018-06-22T11:22:55.579Z,1.97
2018-06-22T11:25:24.402Z,1.17
2018-06-22T11:27:53.246Z,1.77
2018-06-22T11:30:22.141Z,1.47
2018-06-22T11:32:50.932Z,1.40
2018-06-22T11:35:19.739Z,1.30
2018-06-22T11:37:48.528Z,1.40
2018-06-22T11:40:17.456Z,1.20
2018-06-22T11:42:46.363Z,1.80
2018-06-22T11:45:21.205Z,1.50
2018-06-22T11:47:49.996Z,0.90
2018-06-22T11:50:18.922Z,0.93
2018-06-22T11:52:47.690Z,1.47
2018-06-22T11:55:16.499Z,1.00
2018-06-22T11:57:45.247Z,1.57
2018-06-22T12:00:14.072Z,1.20
2018-06-22T12:02:42.897Z,1.43
2018-06-22T12:05:11.786Z,1.40
2018-06-22T12:07:40.572Z,1.63
2018-06-22T12:10:09.398Z,1.97
2018-06-22T12:12:38.248Z,1.33
2018-06-22T12:15:07.152Z,1.70
2018-06-22T12:17:35.923Z,2.13
2018-06-22T12:20:04.796Z,2.00
2018-06-22T12:22:33.569Z,1.13
2018-06-22T12:25:02.423Z,2.00
2018-06-22T12:27:31.299Z,2.27
2018-06-22T12:30:00.102Z,2.10
2018-06-22T12:32:28.971Z,1.20
2018-06-22T12:34:57.755Z,2.00
2018-06-22T12:37:26.580Z,1.70
2018-06-22T12:39:55.424Z,1.80
2018-06-22T12:42:24.231Z,2.13
2018-06-22T12:44:53.067Z,2.53
2018-06-22T12:47:21.899Z,2.13
2018-06-22T12:49:50.780Z,3.13
2018-06-22T12:52:19.497Z,1.33
2018-06-22T12:54:48.359Z,1.83
2018-06-22T12:57:17.205Z,1.10
2018-06-22T12:59:45.836Z,1.27
2018-06-22T13:02:14.627Z,1.40
2018-06-22T13:04:43.763Z,1.10
2018-06-22T13:07:12.895Z,1.43
2018-06-22T13:09:42.020Z,1.30
2018-06-22T13:12:10.847Z,1.60
2018-06-22T13:14:39.616Z,2.33
2018-06-22T13:17:08.557Z,1.20
2018-06-22T13:19:37.157Z,2.27
2018-06-22T13:22:06.124Z,2.03
2018-06-22T13:24:34.749Z,1.50
2018-06-22T13:27:03.607Z,2.30
2018-06-22T13:29:32.485Z,1.50
2018-06-22T13:32:01.271Z,1.63
2018-06-22T13:34:30.152Z,2.27
2018-06-22T13:36:58.815Z,1.40
2018-06-22T13:39:27.664Z,2.00
2018-06-22T13:41:56.526Z,2.40
2018-06-22T13:44:25.339Z,1.50
2018-06-22T13:46:54.018Z,1.30
2018-06-22T13:49:22.846Z,2.50
2018-06-22T13:51:51.639Z,0.93
2018-06-22T13:54:20.496Z,1.20
2018-06-22T13:56:49.161Z,2.10
2018-06-22T13:59:17.922Z,1.93
2018-06-22T14:01:46.726Z,1.40
2018-06-22T14:04:21.412Z,1.67
2018-06-22T14:06:52.813Z,1.60
2018-06-22T14:09:22.073Z,2.00
2018-06-22T14:11:50.816Z,1.83
2018-06-22T14:14:19.713Z,2.00
2018-06-22T14:16:48.509Z,1.70
2018-06-22T14:19:17.429Z,1.50
2018-06-22T14:21:46.242Z,1.27
2018-06-22T14:24:15.444Z,2.07
2018-06-22T14:26:44.212Z,1.77
2018-06-22T14:29:13.004Z,2.20
2018-06-22T14:31:41.912Z,2.13
2018-06-22T14:34:10.720Z,2.50
2018-06-22T14:36:39.579Z,2.73
2018-06-22T14:39:08.929Z,2.90
2018-06-22T14:41:37.762Z,2.57
2018-06-22T14:44:06.623Z,2.60
2018-06-22T14:46:35.583Z,1.80
2018-06-22T14:49:04.916Z,2.33
2018-06-22T14:51:33.791Z,1.73
2018-06-22T14:54:08.056Z,3.10
2018-06-22T14:56:42.497Z,2.23
2018-06-22T14:59:16.741Z,3.03
2018-06-22T15:01:51.029Z,1.67
2018-06-22T15:04:25.444Z,2.23
2018-06-22T15:07:00.047Z,1.97
2018-06-22T15:09:28.692Z,2.57
2018-06-22T15:11:57.544Z,2.17
2018-06-22T15:14:26.365Z,1.50
2018-06-22T15:16:55.121Z,1.63
2018-06-22T15:19:23.917Z,1.60
2018-06-22T15:21:53.060Z,1.27
2018-06-22T15:24:22.205Z,1.80
2018-06-22T15:26:50.865Z,1.53
2018-06-22T15:29:19.713Z,1.47
2018-06-22T15:31:48.520Z,1.87
2018-06-22T15:34:22.852Z,1.53
2018-06-22T15:36:57.302Z,1.80
2018-06-22T15:39:31.635Z,1.60
2018-06-22T15:42:05.995Z,1.70
2018-06-22T15:44:40.290Z,1.67
2018-06-22T15:47:14.704Z,1.00
2018-06-22T15:49:49.136Z,1.50
2018-06-22T15:52:23.515Z,1.30
2018-06-22T15:54:57.693Z,1.73
2018-06-22T15:57:26.616Z,1.83
2018-06-22T15:59:55.686Z,1.80
2018-06-22T16:02:30.457Z,1.30
2018-06-22T16:04:59.229Z,1.67
2018-06-22T16:07:28.081Z,1.83
2018-06-22T16:10:00.895Z,2.47
2018-06-22T16:12:33.043Z,1.80
2018-06-22T16:15:07.392Z,2.00
2018-06-22T16:17:41.888Z,0.93
2018-06-22T16:20:16.007Z,2.30
2018-06-22T16:22:50.430Z,0.97
2018-06-22T16:25:24.655Z,1.60
2018-06-22T16:27:55.259Z,1.90
2018-06-22T16:30:24.845Z,2.23
2018-06-22T16:32:53.451Z,1.40
2018-06-22T16:35:22.647Z,1.60
2018-06-22T16:37:52.015Z,2.07
2018-06-22T16:40:20.916Z,2.50
2018-06-22T16:42:50.400Z,1.63
2018-06-22T16:45:25.400Z,1.60
2018-06-22T16:47:54.204Z,1.50
2018-06-22T16:50:23.060Z,2.23
2018-06-22T16:52:51.885Z,1.70
2018-06-22T16:55:21.024Z,1.63
2018-06-22T16:57:49.839Z,1.30
2018-06-22T17:00:18.687Z,1.20
2018-06-22T17:02:48.612Z,0.90
2018-06-22T17:05:17.603Z,1.53
2018-06-22T17:08:51.695Z,1.10
2018-06-22T17:11:26.122Z,1.47
2018-06-22T17:14:00.666Z,1.10
2018-06-22T17:16:35.132Z,1.00
2018-06-22T17:19:04.112Z,2.33
2018-06-22T17:21:32.726Z,1.70
2018-06-22T17:24:01.745Z,1.53
2018-06-22T17:26:30.783Z,1.47
2018-06-22T17:28:59.385Z,1.07
2018-06-22T17:31:29.140Z,1.37
2018-06-22T17:33:58.042Z,1.13
2018-06-22T17:36:27.031Z,1.40
2018-06-22T17:38:55.884Z,1.50
2018-06-22T17:41:24.920Z,1.10
2018-06-22T17:43:53.927Z,1.03
2018-06-22T17:46:23.242Z,1.03
2018-06-22T17:48:52.351Z,0.70
2018-06-22T17:51:21.630Z,1.30
2018-06-22T17:53:50.708Z,1.20
2018-06-22T17:56:25.223Z,1.50
2018-06-22T17:58:59.515Z,0.70
2018-06-22T18:01:34.128Z,1.37
2018-06-22T18:04:09.303Z,1.77
2018-06-22T18:06:43.573Z,1.13
2018-06-22T18:09:17.835Z,1.03
2018-06-22T18:11:52.398Z,1.17
2018-06-22T18:14:21.199Z,1.23
2018-06-22T18:16:50.384Z,1.20
2018-06-22T18:19:19.188Z,1.43
2018-06-22T18:21:48.201Z,1.40
2018-06-22T18:24:16.805Z,2.03
2018-06-22T18:26:45.697Z,1.40
2018-06-22T18:29:14.467Z,1.50
2018-06-22T18:31:43.575Z,1.53
2018-06-22T18:34:12.246Z,2.03
2018-06-22T18:36:43.104Z,2.03
2018-06-22T18:39:12.908Z,1.87
2018-06-22T18:41:41.738Z,1.90
2018-06-22T18:44:16.629Z,2.03
2018-06-22T18:46:46.359Z,1.40
2018-06-22T18:49:16.103Z,1.83
2018-06-22T18:51:45.651Z,1.70
2018-06-22T18:54:20.556Z,2.23
2018-06-22T18:56:55.307Z,2.00
2018-06-22T18:59:30.184Z,1.87
2018-06-22T19:02:05.064Z,3.00
2018-06-22T19:04:33.847Z,2.03
2018-06-22T19:07:02.731Z,1.90
2018-06-22T19:09:31.520Z,2.27
2018-06-22T19:12:01.299Z,2.77
2018-06-22T19:14:30.095Z,1.93
2018-06-22T19:16:58.915Z,2.00
2018-06-22T19:19:27.812Z,1.93
2018-06-22T19:21:57.163Z,1.53
2018-06-22T19:24:25.964Z,2.23
2018-06-22T19:26:54.759Z,2.00
2018-06-22T19:29:23.808Z,2.43
2018-06-22T19:31:52.637Z,2.17
2018-06-22T19:35:25.074Z,2.50
2018-06-22T19:37:54.376Z,2.60
2018-06-22T19:40:23.233Z,2.17
2018-06-22T19:42:52.103Z,3.00
2018-06-22T19:45:32.820Z,1.87
2018-06-22T19:48:07.325Z,2.20
2018-06-22T19:50:41.663Z,1.80
2018-06-22T19:53:16.043Z,2.30
2018-06-22T19:55:44.862Z,2.30
2018-06-22T19:58:13.605Z,2.87
2018-06-22T20:00:42.770Z,1.80
2018-06-22T20:03:11.523Z,2.00
2018-06-22T20:05:40.369Z,2.57
2018-06-22T20:08:09.100Z,1.80
2018-06-22T20:10:39.034Z,1.90
2018-06-22T20:13:07.792Z,2.23
2018-06-22T20:15:37.043Z,1.73
2018-06-22T20:18:06.403Z,1.80
2018-06-22T20:20:35.326Z,2.10
2018-06-22T20:23:04.220Z,1.53
2018-06-22T20:25:38.543Z,1.93
2018-06-22T20:28:07.539Z,2.23
2018-06-22T20:30:36.494Z,1.70
2018-06-22T20:33:05.320Z,1.90
2018-06-22T20:35:39.718Z,1.93
2018-06-22T20:38:14.168Z,1.70
2018-06-22T20:40:48.625Z,2.13
2018-06-22T20:43:22.846Z,1.83
2018-06-22T20:45:54.187Z,2.43
2018-06-22T20:48:28.737Z,2.07
2018-06-22T20:50:57.731Z,2.17
2018-06-22T20:53:26.524Z,1.70
2018-06-22T20:55:55.394Z,2.03
2018-06-22T20:58:24.210Z,1.87
2018-06-22T21:00:53.073Z,2.23
2018-06-22T21:03:21.825Z,1.80
2018-06-22T21:05:50.611Z,1.67
2018-06-22T21:08:19.406Z,2.10
2018-06-22T21:10:48.238Z,2.53
2018-06-22T21:13:16.876Z,2.03
2018-06-22T21:15:45.724Z,2.57
2018-06-22T21:18:14.525Z,2.20
2018-06-22T21:20:48.847Z,2.53
2018-06-22T21:23:17.546Z,2.17
2018-06-22T21:25:46.328Z,2.50
2018-06-22T21:28:20.817Z,2.77
2018-06-22T21:30:54.907Z,2.97
2018-06-22T21:33:29.363Z,2.93
2018-06-22T21:36:03.672Z,2.67
2018-06-22T21:38:37.870Z,3.20
2018-06-22T21:41:06.709Z,2.77
2018-06-22T21:43:35.409Z,3.00
2018-06-22T21:46:04.608Z,2.47
2018-06-22T21:48:33.415Z,3.70
2018-06-22T21:51:02.175Z,2.27
2018-06-22T21:53:31.070Z,3.40
2018-06-22T21:55:59.865Z,3.23
2018-06-22T21:58:28.677Z,3.00
2018-06-22T22:00:57.579Z,3.03
2018-06-22T22:03:26.397Z,3.10
2018-06-22T22:05:55.003Z,2.50
2018-06-22T22:08:23.858Z,2.60
2018-06-22T22:10:58.068Z,3.60
2018-06-22T22:13:26.879Z,2.97
2018-06-22T22:15:55.637Z,2.57
2018-06-22T22:18:24.406Z,2.80
2018-06-22T22:20:53.347Z,2.57
2018-06-22T22:23:22.371Z,3.23
2018-06-22T22:25:51.135Z,3.37
2018-06-22T22:28:19.945Z,3.17
2018-06-22T22:30:48.732Z,3.10
2018-06-22T22:33:17.607Z,3.40
2018-06-22T22:35:46.189Z,3.57
2018-06-22T22:38:14.837Z,2.93
2018-06-22T22:40:43.658Z,3.47
2018-06-22T22:43:12.413Z,3.27
2018-06-22T22:45:47.373Z,3.70
2018-06-22T22:48:16.144Z,3.40
2018-06-22T22:50:44.941Z,2.60
2018-06-22T22:53:13.991Z,3.07
2018-06-22T22:55:42.860Z,2.77
2018-06-22T22:58:11.595Z,3.60
2018-06-22T23:00:40.388Z,3.43
2018-06-22T23:03:09.180Z,3.93
2018-06-22T23:05:38.282Z,2.80
2018-06-22T23:08:07.110Z,3.40
2018-06-22T23:10:36.220Z,3.30
2018-06-22T23:13:05.156Z,3.27
2018-06-22T23:15:34.000Z,3.43
2018-06-22T23:18:02.597Z,3.53
2018-06-22T23:20:31.447Z,3.30
2018-06-22T23:23:17.055Z,3.70
2018-06-22T23:25:45.717Z,3.27
2018-06-22T23:28:14.484Z,3.43
2018-06-22T23:30:43.167Z,2.90
2018-06-22T23:33:11.944Z,4.10
2018-06-22T23:35:40.803Z,2.87
2018-06-22T23:38:09.572Z,3.70
2018-06-22T23:40:38.402Z,3.67
2018-06-22T23:43:07.601Z,4.40
2018-06-22T23:45:42.507Z,3.13
2018-06-22T23:48:11.983Z,3.87
2018-06-22T23:50:41.087Z,3.93
2018-06-22T23:53:10.542Z,4.10
2018-06-22T23:55:39.375Z,2.67
2018-06-22T23:58:08.393Z,3.47
